createdAt,value
2018-09-05T00:00:50.827Z,14.30
2018-09-05T00:03:20.262Z,14.30
2018-09-05T00:05:49.738Z,14.20
2018-09-05T00:08:19.234Z,14.20
2018-09-05T00:10:48.899Z,14.20
2018-09-05T00:13:18.420Z,14.20
2018-09-05T00:15:47.815Z,14.10
2018-09-05T00:18:17.234Z,14.10
2018-09-05T00:20:46.714Z,14.00
2018-09-05T00:23:16.051Z,14.00
2018-09-05T00:25:45.586Z,13.90
2018-09-05T00:28:14.964Z,13.90
2018-09-05T00:30:44.422Z,13.80
2018-09-05T00:33:13.870Z,13.80
2018-09-05T00:35:43.258Z,13.80
2018-09-05T00:38:14.418Z,13.80
2018-09-05T00:40:44.007Z,13.80
2018-09-05T00:43:13.570Z,13.70
2018-09-05T00:45:43.001Z,13.70
2018-09-05T00:48:12.442Z,13.70
2018-09-05T00:50:41.980Z,13.70
2018-09-05T00:53:11.482Z,13.60
2018-09-05T00:55:40.990Z,13.60
2018-09-05T00:58:10.494Z,13.60
2018-09-05T01:00:40.138Z,13.50
2018-09-05T01:03:09.486Z,13.50
2018-09-05T01:05:39.042Z,13.50
2018-09-05T01:08:08.551Z,13.50
2018-09-05T01:10:38.063Z,13.50
2018-09-05T01:13:07.606Z,13.40
2018-09-05T01:15:37.052Z,13.50
2018-09-05T01:18:06.526Z,13.40
2018-09-05T01:20:36.072Z,13.40
2018-09-05T01:23:05.638Z,13.30
2018-09-05T01:25:35.143Z,13.20
2018-09-05T01:28:04.866Z,13.10
2018-09-05T01:30:34.469Z,13.00
2018-09-05T01:33:03.803Z,13.00
2018-09-05T01:35:34.006Z,13.00
2018-09-05T01:38:03.474Z,12.90
2018-09-05T01:40:32.802Z,12.80
2018-09-05T01:43:02.298Z,12.80
2018-09-05T01:45:31.805Z,12.80
2018-09-05T01:48:01.316Z,12.80
2018-09-05T01:50:35.959Z,12.70
2018-09-05T01:53:05.427Z,12.70
2018-09-05T01:55:34.884Z,12.70
2018-09-05T01:58:04.291Z,12.70
2018-09-05T02:00:34.530Z,12.70
2018-09-05T02:03:04.872Z,12.70
2018-09-05T02:05:34.415Z,12.70
2018-09-05T02:08:03.954Z,12.70
2018-09-05T02:10:33.453Z,12.70
2018-09-05T02:13:02.942Z,12.70
2018-09-05T02:15:32.411Z,12.70
2018-09-05T02:18:01.903Z,12.70
2018-09-05T02:20:31.414Z,12.60
2018-09-05T02:23:00.815Z,12.60
2018-09-05T02:25:30.351Z,12.60
2018-09-05T02:27:59.871Z,12.60
2018-09-05T02:30:29.414Z,12.60
2018-09-05T02:32:58.914Z,12.60
2018-09-05T02:35:28.407Z,12.60
2018-09-05T02:37:57.918Z,12.60
2018-09-05T02:40:27.523Z,12.60
2018-09-05T02:42:57.319Z,12.60
2018-09-05T02:45:26.892Z,12.60
2018-09-05T02:47:56.305Z,12.50
2018-09-05T02:50:25.683Z,12.50
2018-09-05T02:57:57.916Z,12.50
2018-09-05T03:00:27.429Z,12.40
2018-09-05T03:02:56.959Z,12.30
2018-09-05T03:05:26.548Z,12.30
2018-09-05T03:07:56.062Z,12.30
2018-09-05T03:10:25.549Z,12.30
2018-09-05T03:12:55.079Z,12.30
2018-09-05T03:15:24.598Z,12.30
2018-09-05T03:17:54.051Z,12.30
2018-09-05T03:20:23.515Z,12.20
2018-09-05T03:22:52.886Z,12.30
2018-09-05T03:25:22.402Z,12.20
2018-09-05T03:27:51.894Z,12.30
2018-09-05T03:30:21.598Z,12.20
2018-09-05T03:32:51.543Z,12.20
2018-09-05T03:35:21.027Z,12.30
2018-09-05T03:37:51.566Z,12.30
2018-09-05T03:40:20.982Z,12.20
2018-09-05T03:42:51.379Z,12.20
2018-09-05T03:45:21.192Z,12.20
2018-09-05T03:47:51.516Z,12.20
2018-09-05T03:50:21.027Z,12.20
2018-09-05T03:52:51.595Z,12.10
2018-09-05T03:55:21.127Z,12.10
2018-09-05T03:57:51.470Z,12.10
2018-09-05T04:00:20.863Z,12.00
2018-09-05T04:02:50.384Z,12.10
2018-09-05T04:05:20.539Z,12.10
2018-09-05T04:07:50.039Z,12.10
2018-09-05T04:10:19.462Z,12.10
2018-09-05T04:12:48.960Z,12.10
2018-09-05T04:15:18.352Z,12.10
2018-09-05T04:17:47.876Z,12.20
2018-09-05T04:20:17.542Z,12.20
2018-09-05T04:22:46.878Z,12.20
2018-09-05T04:25:16.386Z,12.20
2018-09-05T04:27:45.962Z,12.20
2018-09-05T04:30:15.417Z,12.10
2018-09-05T04:32:44.993Z,12.10
2018-09-05T04:35:14.376Z,12.10
2018-09-05T04:37:53.513Z,12.10
2018-09-05T04:40:23.596Z,12.10
2018-09-05T04:42:53.078Z,12.10
2018-09-05T04:45:22.464Z,12.10
2018-09-05T04:47:51.842Z,12.10
2018-09-05T04:50:21.320Z,12.10
2018-09-05T04:52:50.670Z,12.20
2018-09-05T04:55:20.207Z,12.20
2018-09-05T04:57:49.710Z,12.30
2018-09-05T05:00:19.214Z,12.30
2018-09-05T05:02:48.759Z,12.50
2018-09-05T05:05:18.347Z,12.50
2018-09-05T05:07:47.627Z,12.60
2018-09-05T05:10:17.287Z,12.80
2018-09-05T05:12:46.790Z,12.90
2018-09-05T05:15:16.199Z,13.00
2018-09-05T05:17:46.618Z,13.10
2018-09-05T05:20:16.203Z,13.30
2018-09-05T05:22:45.704Z,13.40
2018-09-05T05:25:15.216Z,13.60
2018-09-05T05:27:44.732Z,13.80
2018-09-05T05:30:14.277Z,13.90
2018-09-05T05:32:43.784Z,14.10
2018-09-05T05:35:13.183Z,14.20
2018-09-05T05:37:42.726Z,14.40
2018-09-05T05:40:12.315Z,14.50
2018-09-05T05:42:41.862Z,14.60
2018-09-05T05:45:11.258Z,14.80
2018-09-05T05:47:40.735Z,15.00
2018-09-05T05:50:10.250Z,15.20
2018-09-05T05:52:39.750Z,15.60
2018-09-05T05:55:09.368Z,16.00
2018-09-05T05:57:38.692Z,16.60
2018-09-05T06:00:08.115Z,17.30
2018-09-05T06:02:37.590Z,18.10
2018-09-05T06:05:07.147Z,18.90
2018-09-05T06:07:36.683Z,19.90
2018-09-05T06:10:06.195Z,20.80
2018-09-05T06:12:35.690Z,21.50
2018-09-05T06:15:05.083Z,22.30
2018-09-05T06:17:34.663Z,23.00
2018-09-05T06:20:04.080Z,23.60
2018-09-05T06:22:33.484Z,24.00
2018-09-05T06:25:02.979Z,24.40
2018-09-05T06:27:32.315Z,24.70
2018-09-05T06:30:01.651Z,24.90
2018-09-05T06:32:30.992Z,25.20
2018-09-05T06:35:00.475Z,25.30
2018-09-05T06:37:30.020Z,25.40
2018-09-05T06:39:59.366Z,25.40
2018-09-05T06:42:28.726Z,25.40
2018-09-05T06:44:58.277Z,25.50
2018-09-05T06:47:27.638Z,25.30
2018-09-05T06:49:57.235Z,25.20
2018-09-05T06:52:26.685Z,25.10
2018-09-05T06:54:56.118Z,25.10
2018-09-05T06:57:25.680Z,25.00
2018-09-05T06:59:55.140Z,24.80
2018-09-05T07:02:24.516Z,24.70
2018-09-05T07:04:53.914Z,24.50
2018-09-05T07:07:23.335Z,24.50
2018-09-05T07:09:52.866Z,24.50
2018-09-05T07:12:22.220Z,24.50
2018-09-05T07:14:52.235Z,24.60
2018-09-05T07:17:21.772Z,24.70
2018-09-05T07:19:52.230Z,24.70
2018-09-05T07:22:21.769Z,24.80
2018-09-05T07:24:52.248Z,24.90
2018-09-05T07:27:21.690Z,25.00
2018-09-05T07:29:52.155Z,25.10
2018-09-05T07:32:21.678Z,25.20
2018-09-05T07:34:51.058Z,25.20
2018-09-05T07:37:20.559Z,25.30
2018-09-05T07:39:50.047Z,25.40
2018-09-05T07:42:19.564Z,25.50
2018-09-05T07:44:49.095Z,25.50
2018-09-05T07:47:18.630Z,25.70
2018-09-05T07:49:47.958Z,25.80
2018-09-05T07:52:17.322Z,25.90
2018-09-05T07:54:46.746Z,26.00
2018-09-05T07:57:16.321Z,26.00
2018-09-05T07:59:45.639Z,26.10
2018-09-05T08:02:15.153Z,26.20
2018-09-05T08:04:44.514Z,26.10
2018-09-05T08:07:13.896Z,25.80
2018-09-05T08:09:43.385Z,25.40
2018-09-05T08:12:12.891Z,25.30
2018-09-05T08:14:42.402Z,25.40
2018-09-05T08:17:11.891Z,25.40
2018-09-05T08:19:41.386Z,25.50
2018-09-05T08:22:10.763Z,25.70
2018-09-05T08:24:40.391Z,25.80
2018-09-05T08:27:09.867Z,25.70
2018-09-05T08:29:39.194Z,25.70
2018-09-05T08:32:08.537Z,25.70
2018-09-05T08:34:38.012Z,25.80
2018-09-05T08:37:07.788Z,25.90
2018-09-05T08:39:36.894Z,26.00
2018-09-05T08:42:06.457Z,26.20
2018-09-05T08:44:36.067Z,26.50
2018-09-05T08:47:05.611Z,26.60
2018-09-05T08:49:35.061Z,26.70
2018-09-05T08:52:04.659Z,26.70
2018-09-05T08:54:34.135Z,26.70
2018-09-05T08:57:03.671Z,26.80
2018-09-05T08:59:33.157Z,26.80
2018-09-05T09:02:02.667Z,26.80
2018-09-05T09:04:32.190Z,26.80
2018-09-05T09:07:01.684Z,26.80
2018-09-05T09:09:31.056Z,26.70
2018-09-05T09:12:00.358Z,26.70
2018-09-05T09:14:29.741Z,26.60
2018-09-05T09:16:59.260Z,26.60
2018-09-05T09:19:28.745Z,26.60
2018-09-05T09:21:58.221Z,26.50
2018-09-05T09:24:27.761Z,26.40
2018-09-05T09:26:57.174Z,26.40
2018-09-05T09:29:26.702Z,26.30
2018-09-05T09:31:56.299Z,26.30
2018-09-05T09:34:25.796Z,26.10
2018-09-05T09:36:55.287Z,26.10
2018-09-05T09:39:24.775Z,26.00
2018-09-05T09:41:54.154Z,26.00
2018-09-05T09:44:23.674Z,25.90
2018-09-05T09:46:53.602Z,25.90
2018-09-05T09:49:22.976Z,25.90
2018-09-05T09:51:57.275Z,25.90
2018-09-05T09:54:26.792Z,25.80
2018-09-05T09:56:56.153Z,25.70
2018-09-05T09:59:25.588Z,25.70
2018-09-05T10:02:00.191Z,25.60
2018-09-05T10:04:35.147Z,25.60
2018-09-05T10:07:09.965Z,25.60
2018-09-05T10:09:44.935Z,25.50
2018-09-05T10:12:19.663Z,25.50
2018-09-05T10:14:54.475Z,25.40
2018-09-05T10:17:29.219Z,25.40
2018-09-05T10:19:59.700Z,25.30
2018-09-05T10:22:29.836Z,25.30
2018-09-05T10:24:59.330Z,25.20
2018-09-05T10:27:29.586Z,25.30
2018-09-05T10:29:59.187Z,25.30
2018-09-05T10:32:28.506Z,25.30
2018-09-05T10:34:58.048Z,25.20
2018-09-05T10:37:27.601Z,25.20
2018-09-05T10:39:57.002Z,25.20
2018-09-05T10:42:26.378Z,25.20
2018-09-05T10:44:55.906Z,25.20
2018-09-05T10:47:25.314Z,25.20
2018-09-05T10:49:54.806Z,25.20
2018-09-05T10:52:24.287Z,25.20
2018-09-05T10:54:53.695Z,25.10
2018-09-05T10:57:23.819Z,25.20
2018-09-05T10:59:53.450Z,25.20
2018-09-05T11:02:22.815Z,25.20
2018-09-05T11:04:53.143Z,25.10
2018-09-05T11:07:22.562Z,25.20
2018-09-05T11:09:52.879Z,25.10
2018-09-05T11:12:22.179Z,25.10
2018-09-05T11:14:51.702Z,25.10
2018-09-05T11:17:21.202Z,25.10
2018-09-05T11:19:50.572Z,25.10
2018-09-05T11:22:20.110Z,25.10
2018-09-05T11:24:49.632Z,25.10
2018-09-05T11:27:19.166Z,25.10
2018-09-05T11:29:48.613Z,25.20
2018-09-05T11:32:18.135Z,25.10
2018-09-05T11:34:47.658Z,25.20
2018-09-05T11:37:17.007Z,25.20
2018-09-05T11:39:46.579Z,25.20
2018-09-05T11:42:15.959Z,25.20
2018-09-05T11:44:45.350Z,25.20
2018-09-05T11:47:14.738Z,25.20
2018-09-05T11:49:44.151Z,25.20
2018-09-05T11:52:13.477Z,25.20
2018-09-05T11:54:43.010Z,25.20
2018-09-05T11:57:12.412Z,25.30
2018-09-05T11:59:41.799Z,25.30
2018-09-05T12:02:11.507Z,25.30
2018-09-05T12:04:41.017Z,25.30
2018-09-05T12:07:11.106Z,25.30
2018-09-05T12:11:58.965Z,25.40
2018-09-05T12:14:28.443Z,25.40
2018-09-05T12:16:57.919Z,25.40
2018-09-05T12:19:27.303Z,25.40
2018-09-05T12:21:56.636Z,25.30
2018-09-05T12:24:26.242Z,25.40
2018-09-05T12:26:55.595Z,25.40
2018-09-05T12:29:25.030Z,25.50
2018-09-05T12:31:54.314Z,25.50
2018-09-05T12:34:23.847Z,25.50
2018-09-05T12:36:53.381Z,25.60
2018-09-05T12:39:22.770Z,25.60
2018-09-05T12:41:52.519Z,25.60
2018-09-05T12:44:21.869Z,25.70
2018-09-05T12:46:51.266Z,25.70
2018-09-05T12:49:20.769Z,25.80
2018-09-05T12:51:50.294Z,25.80
2018-09-05T12:54:19.876Z,25.80
2018-09-05T12:56:49.399Z,25.80
2018-09-05T12:59:18.873Z,25.80
2018-09-05T13:01:48.422Z,25.80
2018-09-05T13:04:17.847Z,25.80
2018-09-05T13:06:47.260Z,25.80
2018-09-05T13:09:16.642Z,25.80
2018-09-05T13:11:46.015Z,25.80
2018-09-05T13:14:15.406Z,25.80
2018-09-05T13:16:45.200Z,25.70
2018-09-05T13:19:14.554Z,25.70
2018-09-05T13:21:43.986Z,25.60
2018-09-05T13:24:13.384Z,25.60
2018-09-05T13:26:42.785Z,25.50
2018-09-05T13:29:12.630Z,25.50
2018-09-05T13:31:42.130Z,25.40
2018-09-05T13:34:11.504Z,25.40
2018-09-05T13:36:40.831Z,25.40
2018-09-05T13:39:11.652Z,25.30
2018-09-05T13:41:41.478Z,25.40
2018-09-05T13:44:11.731Z,25.40
2018-09-05T13:46:41.136Z,25.40
2018-09-05T13:49:10.487Z,25.40
2018-09-05T13:51:39.792Z,25.50
2018-09-05T13:54:09.374Z,25.50
2018-09-05T13:56:38.856Z,25.50
2018-09-05T13:59:08.354Z,25.50
2018-09-05T14:01:37.766Z,25.40
2018-09-05T14:04:07.476Z,25.40
2018-09-05T14:06:36.827Z,25.30
2018-09-05T14:09:09.096Z,25.30
2018-09-05T14:11:38.570Z,25.30
2018-09-05T14:14:08.136Z,25.20
2018-09-05T14:16:37.599Z,25.20
2018-09-05T14:19:07.124Z,25.10
2018-09-05T14:21:36.612Z,25.00
2018-09-05T14:24:05.947Z,25.00
2018-09-05T14:26:35.448Z,25.00
2018-09-05T14:29:04.838Z,24.90
2018-09-05T14:31:34.195Z,24.90
2018-09-05T14:34:03.676Z,24.80
2018-09-05T14:36:33.491Z,24.80
2018-09-05T14:39:03.153Z,24.70
2018-09-05T14:41:32.697Z,24.70
2018-09-05T14:44:02.267Z,24.70
2018-09-05T14:46:31.780Z,24.70
2018-09-05T14:49:01.341Z,24.70
2018-09-05T14:51:30.759Z,24.60
2018-09-05T14:54:00.371Z,24.60
2018-09-05T14:56:30.003Z,24.60
2018-09-05T14:58:59.514Z,24.60
2018-09-05T15:01:28.863Z,24.50
2018-09-05T15:03:58.364Z,24.50
2018-09-05T15:06:27.774Z,24.40
2018-09-05T15:08:57.121Z,24.40
2018-09-05T15:11:26.446Z,24.30
2018-09-05T15:13:55.993Z,24.30
2018-09-05T15:16:25.394Z,24.30
2018-09-05T15:18:54.802Z,24.30
2018-09-05T15:21:24.335Z,24.20
2018-09-05T15:23:53.940Z,24.20
2018-09-05T15:26:23.459Z,24.20
2018-09-05T15:28:53.985Z,24.20
2018-09-05T15:31:23.794Z,24.10
2018-09-05T15:33:53.911Z,24.10
2018-09-05T15:36:23.266Z,24.20
2018-09-05T15:38:54.043Z,24.10
2018-09-05T15:41:23.605Z,24.10
2018-09-05T15:43:54.017Z,24.00
2018-09-05T15:46:23.540Z,24.00
2018-09-05T15:48:53.914Z,24.00
2018-09-05T15:51:23.257Z,24.00
2018-09-05T15:53:52.814Z,24.00
2018-09-05T15:56:22.349Z,23.90
2018-09-05T16:03:47.327Z,23.80
2018-09-05T16:06:16.783Z,23.70
2018-09-05T16:08:46.308Z,23.70
2018-09-05T16:11:15.824Z,23.60
2018-09-05T16:13:45.239Z,23.70
2018-09-05T16:16:14.590Z,23.60
2018-09-05T16:18:44.054Z,23.60
2018-09-05T16:21:13.441Z,23.50
2018-09-05T16:23:42.899Z,23.50
2018-09-05T16:26:12.236Z,23.50
2018-09-05T16:28:41.658Z,23.40
2018-09-05T16:31:11.014Z,23.40
2018-09-05T16:33:40.503Z,23.40
2018-09-05T16:36:10.174Z,23.40
2018-09-05T16:38:39.864Z,23.30
2018-09-05T16:41:09.436Z,23.30
2018-09-05T16:43:39.245Z,23.20
2018-09-05T16:46:09.062Z,23.20
2018-09-05T16:48:38.940Z,23.20
2018-09-05T16:56:03.907Z,23.10
2018-09-05T16:58:33.629Z,23.00
2018-09-05T17:01:03.486Z,22.90
2018-09-05T17:03:33.042Z,22.90
2018-09-05T17:06:02.445Z,22.90
2018-09-05T17:08:31.775Z,22.80
2018-09-05T17:11:01.370Z,22.80
2018-09-05T17:13:30.982Z,22.70
2018-09-05T17:16:00.527Z,22.70
2018-09-05T17:18:30.100Z,22.60
2018-09-05T17:20:59.532Z,22.60
2018-09-05T17:23:29.091Z,22.50
2018-09-05T17:25:58.789Z,22.50
2018-09-05T17:28:28.251Z,22.50
2018-09-05T17:30:57.872Z,22.50
2018-09-05T17:33:27.337Z,22.40
2018-09-05T17:35:56.959Z,22.30
2018-09-05T17:38:26.622Z,22.30
2018-09-05T17:40:56.154Z,22.30
2018-09-05T17:43:26.727Z,22.10
2018-09-05T17:45:56.195Z,22.10
2018-09-05T17:48:25.655Z,22.10
2018-09-05T17:50:55.125Z,22.00
2018-09-05T17:53:24.602Z,22.00
2018-09-05T17:55:54.527Z,22.00
2018-09-05T17:58:24.564Z,21.90
2018-09-05T18:00:54.995Z,21.90
2018-09-05T18:03:24.825Z,21.90
2018-09-05T18:05:54.745Z,21.80
2018-09-05T18:08:24.371Z,21.80
2018-09-05T18:10:54.788Z,21.80
2018-09-05T18:13:24.399Z,21.70
2018-09-05T18:15:54.724Z,21.70
2018-09-05T18:18:24.335Z,21.60
2018-09-05T18:20:54.696Z,21.50
2018-09-05T18:23:24.175Z,21.40
2018-09-05T18:25:54.777Z,21.40
2018-09-05T18:28:24.227Z,21.30
2018-09-05T18:30:54.634Z,21.30
2018-09-05T18:33:24.285Z,21.20
2018-09-05T18:35:54.716Z,21.10
2018-09-05T18:38:24.764Z,21.00
2018-09-05T18:40:54.788Z,21.00
2018-09-05T18:43:24.325Z,20.90
2018-09-05T18:45:54.803Z,20.90
2018-09-05T18:48:24.336Z,20.90
2018-09-05T18:50:54.760Z,20.90
2018-09-05T18:53:24.521Z,20.80
2018-09-05T18:55:54.714Z,20.80
2018-09-05T18:58:24.298Z,20.70
2018-09-05T19:00:54.822Z,20.70
2018-09-05T19:03:24.353Z,20.70
2018-09-05T19:05:54.897Z,20.60
2018-09-05T19:08:24.495Z,20.60
2018-09-05T19:10:55.006Z,20.60
2018-09-05T19:13:24.966Z,20.60
2018-09-05T19:15:54.884Z,20.50
2018-09-05T19:18:24.469Z,20.50
2018-09-05T19:20:54.903Z,20.50
2018-09-05T19:23:24.736Z,20.40
2018-09-05T19:25:55.059Z,20.40
2018-09-05T19:28:24.611Z,20.40
2018-09-05T19:30:54.742Z,20.30
2018-09-05T19:33:24.299Z,20.20
2018-09-05T19:35:54.702Z,20.20
2018-09-05T19:38:24.395Z,20.10
2018-09-05T19:40:54.019Z,20.10
2018-09-05T19:43:23.403Z,20.20
2018-09-05T19:45:52.841Z,20.10
2018-09-05T19:48:23.217Z,20.10
2018-09-05T19:50:52.712Z,20.10
2018-09-05T19:53:22.575Z,20.00
2018-09-05T19:55:52.194Z,20.00
2018-09-05T19:58:21.779Z,20.00
2018-09-05T20:00:51.316Z,20.00
2018-09-05T20:03:21.180Z,19.90
2018-09-05T20:05:50.830Z,19.90
2018-09-05T20:08:20.302Z,19.90
2018-09-05T20:10:49.836Z,19.80
2018-09-05T20:13:19.338Z,19.70
2018-09-05T20:15:48.938Z,19.70
2018-09-05T20:18:18.499Z,19.60
2018-09-05T20:20:47.917Z,19.50
2018-09-05T20:23:18.393Z,19.50
2018-09-05T20:25:48.900Z,19.40
2018-09-05T20:28:18.472Z,19.40
2018-09-05T20:30:48.069Z,19.30
2018-09-05T20:33:17.484Z,19.30
2018-09-05T20:35:47.162Z,19.30
2018-09-05T20:38:16.869Z,19.20
2018-09-05T20:40:46.382Z,19.20
2018-09-05T20:43:16.009Z,19.20
2018-09-05T20:45:45.709Z,19.10
2018-09-05T20:48:15.231Z,19.10
2018-09-05T20:50:44.851Z,19.10
2018-09-05T20:53:14.463Z,19.00
2018-09-05T20:55:44.027Z,18.90
2018-09-05T20:58:13.630Z,18.90
2018-09-05T21:00:43.164Z,18.90
2018-09-05T21:03:12.728Z,18.90
2018-09-05T21:05:43.419Z,19.00
2018-09-05T21:08:12.896Z,19.00
2018-09-05T21:10:42.298Z,19.00
2018-09-05T21:13:11.638Z,19.00
2018-09-05T21:15:41.285Z,19.00
2018-09-05T21:18:10.797Z,19.00
2018-09-05T21:20:40.655Z,18.90
2018-09-05T21:23:10.061Z,18.70
2018-09-05T21:25:39.483Z,18.70
2018-09-05T21:28:08.967Z,18.60
2018-09-05T21:30:38.331Z,18.60
2018-09-05T21:33:07.832Z,18.50
2018-09-05T21:35:37.286Z,18.30
2018-09-05T21:38:06.822Z,18.10
2018-09-05T21:40:36.364Z,18.00
2018-09-05T21:43:05.926Z,17.90
2018-09-05T21:45:35.314Z,17.90
2018-09-05T21:48:04.775Z,17.80
2018-09-05T21:50:34.114Z,17.90
2018-09-05T21:53:03.923Z,17.90
2018-09-05T21:55:33.996Z,17.90
2018-09-05T21:58:03.558Z,17.90
2018-09-05T22:00:33.023Z,18.00
2018-09-05T22:03:02.526Z,18.00
2018-09-05T22:05:32.030Z,17.90
2018-09-05T22:08:01.611Z,17.90
2018-09-05T22:10:31.045Z,17.80
2018-09-05T22:13:00.558Z,17.80
2018-09-05T22:15:34.121Z,17.80
2018-09-05T22:18:03.546Z,17.80
2018-09-05T22:20:32.930Z,17.70
2018-09-05T22:23:02.486Z,17.70
2018-09-05T22:25:32.006Z,17.70
2018-09-05T22:28:01.625Z,17.60
2018-09-05T22:30:31.986Z,17.50
2018-09-05T22:33:01.762Z,17.50
2018-09-05T22:35:31.474Z,17.50
2018-09-05T22:38:00.835Z,17.60
2018-09-05T22:40:35.364Z,17.60
2018-09-05T22:43:15.963Z,17.60
2018-09-05T22:45:56.579Z,17.70
2018-09-05T22:50:46.256Z,17.70
2018-09-05T22:53:35.943Z,17.80
2018-09-05T22:56:22.208Z,17.90
2018-09-05T22:59:10.599Z,17.90
2018-09-05T23:02:57.783Z,17.90
2018-09-05T23:05:43.867Z,17.80
2018-09-05T23:08:45.779Z,17.80
2018-09-05T23:11:55.920Z,17.70
2018-09-05T23:14:37.108Z,17.70
2018-09-05T23:17:18.089Z,17.70
2018-09-05T23:20:01.891Z,17.70
2018-09-05T23:24:40.615Z,17.60
2018-09-05T23:27:10.181Z,17.50
2018-09-05T23:29:39.724Z,17.40
2018-09-05T23:32:09.243Z,17.40
2018-09-05T23:34:39.104Z,17.30
2018-09-05T23:37:08.559Z,17.20
2018-09-05T23:39:38.104Z,17.20
2018-09-05T23:42:07.643Z,17.20
2018-09-05T23:44:37.152Z,17.10
2018-09-05T23:47:06.552Z,17.10
2018-09-05T23:49:35.867Z,17.10
2018-09-05T23:52:05.424Z,17.00
2018-09-05T23:54:35.852Z,17.00
2018-09-05T23:57:05.428Z,17.00
2018-09-05T23:59:34.931Z,16.90
